Ahtanum, Washington
Current Conditions -  °F | °C
As of 5:53 PM on Monday 22 Dec 2014 (Local Time) from KYKM Reporting Station
Few Clouds Few Clouds  
Wind Chill:   Ceiling: Unl
Heat Index:   Visibility: 10mi
Dew Point: -2°   Wind: 5mph
Humidity: 50%   Direction: 50°NE
Pressure: 30.32"   Gusts: NA
Location:  46.5979°N, 120.534°W
Report Text: KYKM 230153Z 05004KT 10SM FEW120 08/M02 A3032 RMK AO2 SLP275 T00831017
Loading
Personal Weather Stations






























Interactive Weather Map New forecast layout! Learn more

10-Day Weather Forecast

Advertisements
Track Severe Weather on mobile